createdAt,value
2023-05-07T00:00:24.955Z,3.5
2023-05-07T00:01:26.590Z,2.799
2023-05-07T00:02:23.866Z,3.299
2023-05-07T00:03:24.048Z,3.099
2023-05-07T00:04:24.109Z,4.099
2023-05-07T00:05:24.345Z,4
2023-05-07T00:06:23.889Z,4.199
2023-05-07T00:07:23.747Z,3.299
2023-05-07T00:09:24.297Z,2.599
2023-05-07T00:10:24.380Z,2.900
2023-05-07T00:11:23.789Z,3.099
2023-05-07T00:13:23.897Z,3.900
2023-05-07T00:14:23.780Z,2.299
2023-05-07T00:15:24.695Z,2.799
2023-05-07T00:17:24.135Z,3
2023-05-07T00:18:23.602Z,3.700
2023-05-07T00:19:24.254Z,3.299
2023-05-07T00:20:24.119Z,3.5
2023-05-07T00:22:24.529Z,3.299
2023-05-07T00:23:24.007Z,2.799
2023-05-07T00:24:23.803Z,2.099
2023-05-07T00:25:24.222Z,3.299
2023-05-07T00:26:23.881Z,2.700
2023-05-07T00:27:23.750Z,2.5
2023-05-07T00:28:24.128Z,3.5
2023-05-07T00:29:23.988Z,2.5
2023-05-07T00:30:24.336Z,3.200
2023-05-07T00:31:24.054Z,2.5
2023-05-07T00:32:23.714Z,2.900
2023-05-07T00:33:24.292Z,2
2023-05-07T00:34:23.766Z,2.700
2023-05-07T00:36:23.964Z,2.400
2023-05-07T00:37:24.237Z,3
2023-05-07T00:38:23.755Z,2.299
2023-05-07T00:39:24.069Z,2.799
2023-05-07T00:40:23.863Z,3.200
2023-05-07T00:41:24.187Z,2.200
2023-05-07T00:42:23.742Z,1.899
2023-05-07T00:43:24.168Z,2.400
2023-05-07T00:44:23.821Z,2.5
2023-05-07T00:45:23.797Z,2.700
2023-05-07T00:46:23.806Z,2.5
2023-05-07T00:48:23.771Z,2.799
2023-05-07T00:49:24.098Z,3.900
2023-05-07T00:50:23.971Z,2.799
2023-05-07T00:51:23.781Z,2.5
2023-05-07T00:52:24.007Z,2.299
2023-05-07T00:53:24.114Z,3.700
2023-05-07T00:54:24.359Z,2.700
2023-05-07T00:55:23.706Z,3.200
2023-05-07T00:56:24.141Z,2.700
2023-05-07T00:57:23.866Z,2.799
2023-05-07T00:58:24.431Z,2.299
2023-05-07T00:59:23.881Z,2.700
2023-05-07T01:00:24.953Z,2
2023-05-07T01:03:23.928Z,2.5
2023-05-07T01:04:24.071Z,3.099
2023-05-07T01:05:23.854Z,2.299
2023-05-07T01:06:23.761Z,2.099
2023-05-07T01:08:24.263Z,1.700
2023-05-07T01:09:24.403Z,2
2023-05-07T01:10:23.926Z,2.400
2023-05-07T01:11:24.168Z,1.600
2023-05-07T01:12:23.929Z,2.599
2023-05-07T01:13:23.890Z,1.799
2023-05-07T01:14:23.538Z,2.700
2023-05-07T01:15:24.266Z,1.899
2023-05-07T01:16:23.494Z,2.900
2023-05-07T01:17:24.191Z,2.099
2023-05-07T01:18:23.783Z,2.5
2023-05-07T01:19:24.026Z,3.799
2023-05-07T01:20:23.703Z,3.299
2023-05-07T01:21:23.982Z,2
2023-05-07T01:22:24.414Z,2.400
2023-05-07T01:23:23.509Z,2.599
2023-05-07T01:24:23.709Z,2.099
2023-05-07T01:25:24.480Z,2.400
2023-05-07T01:26:23.740Z,2.900
2023-05-07T01:27:24.170Z,1.700
2023-05-07T01:28:23.777Z,1.799
2023-05-07T01:29:24.009Z,2
2023-05-07T01:30:24.094Z,2.200
2023-05-07T01:31:23.713Z,1.799
2023-05-07T01:32:24.488Z,3.599
2023-05-07T01:33:23.902Z,3.099
2023-05-07T01:34:24.113Z,2.799
2023-05-07T01:37:24.221Z,3.099
2023-05-07T01:38:23.841Z,2.299
2023-05-07T01:39:24.392Z,3.299
2023-05-07T01:40:24.095Z,3.799
2023-05-07T01:41:23.589Z,2.700
2023-05-07T01:42:23.992Z,2.799
2023-05-07T01:43:23.441Z,3
2023-05-07T01:44:23.774Z,2.700
2023-05-07T01:45:23.950Z,2.900
2023-05-07T01:46:23.742Z,3
2023-05-07T01:47:24.468Z,3.200
2023-05-07T01:48:23.648Z,2.799
2023-05-07T01:49:24.014Z,3.400
2023-05-07T01:50:23.657Z,3.900
2023-05-07T01:51:23.993Z,3.299
2023-05-07T01:52:24.456Z,3.099
2023-05-07T01:53:23.893Z,2.700
2023-05-07T01:54:23.880Z,2.400
2023-05-07T01:55:24.456Z,2.900
2023-05-07T01:57:23.934Z,3.599
2023-05-07T01:58:23.719Z,4.900
2023-05-07T01:59:24.282Z,3.299
2023-05-07T02:00:24.977Z,2.900
2023-05-07T02:01:23.542Z,6.099
2023-05-07T02:02:23.966Z,3.5
2023-05-07T02:03:23.842Z,3.200
2023-05-07T02:04:23.408Z,4.5
2023-05-07T02:05:24.376Z,2.900
2023-05-07T02:06:24.005Z,2.799
2023-05-07T02:07:24.233Z,3.599
2023-05-07T02:08:23.751Z,3.200
2023-05-07T02:09:24.344Z,2.799
2023-05-07T02:10:24.494Z,3
2023-05-07T02:11:24.134Z,3.599
2023-05-07T02:12:23.730Z,2.900
2023-05-07T02:13:24.246Z,3
2023-05-07T02:14:23.633Z,3.099
2023-05-07T02:15:24.655Z,4.800
2023-05-07T02:16:24.023Z,3.299
2023-05-07T02:17:23.814Z,3.200
2023-05-07T02:18:23.369Z,3
2023-05-07T02:19:23.881Z,3.299
2023-05-07T02:20:24.698Z,2.099
2023-05-07T02:21:24.267Z,2.799
2023-05-07T02:22:23.857Z,3.799
2023-05-07T02:23:23.375Z,3.099
2023-05-07T02:24:24.010Z,4
2023-05-07T02:25:23.966Z,3.900
2023-05-07T02:26:23.802Z,3.599
2023-05-07T02:27:24.131Z,2.5
2023-05-07T02:29:24.489Z,3.099
2023-05-07T02:30:24.360Z,5.099
2023-05-07T02:31:23.943Z,2.900
2023-05-07T02:32:37.833Z,3
2023-05-07T02:33:23.907Z,3.599
2023-05-07T02:34:42.859Z,3
2023-05-07T02:35:24.410Z,2.599
2023-05-07T02:36:23.843Z,2.400
2023-05-07T02:37:24.440Z,3.400
2023-05-07T02:38:23.959Z,2.799
2023-05-07T02:39:23.649Z,2.900
2023-05-07T02:40:24.444Z,3.900
2023-05-07T02:42:23.828Z,3.599
2023-05-07T02:43:24.054Z,2.900
2023-05-07T02:44:23.752Z,3
2023-05-07T02:46:24.220Z,2.599
2023-05-07T02:47:24.202Z,2.5
2023-05-07T02:48:23.995Z,2.400
2023-05-07T02:49:23.997Z,2.700
2023-05-07T02:50:24.521Z,3
2023-05-07T02:51:26.088Z,2.299
2023-05-07T02:52:24.113Z,3.299
2023-05-07T02:53:23.817Z,2.599
2023-05-07T02:54:24.449Z,3.200
2023-05-07T02:55:24.448Z,4.099
2023-05-07T02:56:24.148Z,3.099
2023-05-07T02:57:24.090Z,2.900
2023-05-07T02:58:24.062Z,3.099
2023-05-07T02:59:24.221Z,3.200
2023-05-07T03:00:25.432Z,2.599
2023-05-07T03:02:24.647Z,3
2023-05-07T03:03:24.287Z,2.299
2023-05-07T03:04:24.257Z,2.700
2023-05-07T03:05:24.266Z,2.599
2023-05-07T03:06:24.000Z,3
2023-05-07T03:07:23.906Z,2.799
2023-05-07T03:08:24.429Z,2.599
2023-05-07T03:09:24.059Z,2.799
2023-05-07T03:10:24.052Z,2.5
2023-05-07T03:11:23.691Z,2.400
2023-05-07T03:12:24.409Z,2.700
2023-05-07T03:13:24.365Z,2.799
2023-05-07T03:15:23.947Z,3.799
2023-05-07T03:16:23.973Z,3
2023-05-07T03:17:23.759Z,4
2023-05-07T03:18:23.589Z,3.400
2023-05-07T03:19:24.207Z,2.799
2023-05-07T03:20:23.754Z,2.099
2023-05-07T03:21:24.168Z,3.400
2023-05-07T03:22:23.938Z,2
2023-05-07T03:23:24.984Z,2.400
2023-05-07T03:24:23.624Z,2.599
2023-05-07T03:25:24.448Z,2.099
2023-05-07T03:26:23.601Z,3.200
2023-05-07T03:27:24.229Z,2.099
2023-05-07T03:28:23.903Z,2.5
2023-05-07T03:29:24.312Z,2.599
2023-05-07T03:30:24.187Z,2.5
2023-05-07T03:31:23.748Z,2
2023-05-07T03:32:24.444Z,2.599
2023-05-07T03:33:24.209Z,2.299
2023-05-07T03:34:24.124Z,2.900
2023-05-07T03:35:24.133Z,2.700
2023-05-07T03:38:23.638Z,2.599
2023-05-07T03:39:23.710Z,3.200
2023-05-07T03:40:24.121Z,2.400
2023-05-07T03:41:23.641Z,2.799
2023-05-07T03:42:24.495Z,2.299
2023-05-07T03:43:24.429Z,2.5
2023-05-07T03:44:24.563Z,2.299
2023-05-07T03:45:24.905Z,3
2023-05-07T03:46:23.577Z,2
2023-05-07T03:47:24.015Z,2.299
2023-05-07T03:49:24.166Z,2.099
2023-05-07T03:50:24.381Z,3.099
2023-05-07T03:51:24.516Z,2.599
2023-05-07T03:52:24.413Z,1.899
2023-05-07T03:53:24.399Z,2.599
2023-05-07T03:54:24.497Z,2.299
2023-05-07T03:55:24.694Z,2.400
2023-05-07T03:56:23.831Z,2.299
2023-05-07T03:58:24.127Z,2.099
2023-05-07T03:59:24.418Z,2.299
2023-05-07T04:00:25.219Z,2.099
2023-05-07T04:01:24.165Z,2.400
2023-05-07T04:03:24.410Z,2.700
2023-05-07T04:04:24.743Z,2.200
2023-05-07T04:05:24.065Z,2.799
2023-05-07T04:06:23.764Z,1.799
2023-05-07T04:07:24.460Z,1.899
2023-05-07T04:08:24.261Z,2.5
2023-05-07T04:09:24.307Z,2.799
2023-05-07T04:10:24.399Z,2
2023-05-07T04:11:24.090Z,2.599
2023-05-07T04:12:23.897Z,2.299
2023-05-07T04:13:23.873Z,1.600
2023-05-07T04:14:24.239Z,2.599
2023-05-07T04:15:24.299Z,1.799
2023-05-07T04:16:23.971Z,2.700
2023-05-07T04:17:23.956Z,2.099
2023-05-07T04:19:23.588Z,1.899
2023-05-07T04:21:24.026Z,1.600
2023-05-07T04:22:24.120Z,2.5
2023-05-07T04:23:24.149Z,2.599
2023-05-07T04:24:23.941Z,2.5
2023-05-07T04:25:24.080Z,2.200
2023-05-07T04:26:23.732Z,2.099
2023-05-07T04:27:23.794Z,3
2023-05-07T04:28:23.761Z,3.200
2023-05-07T04:29:29.001Z,3
2023-05-07T04:30:24.515Z,2.900
2023-05-07T04:31:28.573Z,2.799
2023-05-07T04:32:24.355Z,3
2023-05-07T04:33:24.230Z,1.799
2023-05-07T04:34:23.923Z,3.5
2023-05-07T04:35:24.173Z,2.700
2023-05-07T04:36:24.276Z,3.799
2023-05-07T04:37:24.394Z,4.5
2023-05-07T04:38:24.358Z,2.799
2023-05-07T04:39:24.096Z,3.400
2023-05-07T04:40:24.070Z,2.099
2023-05-07T04:41:24.269Z,2.799
2023-05-07T04:42:24.160Z,3.099
2023-05-07T04:43:24.113Z,4.099
2023-05-07T04:44:23.986Z,2.700
2023-05-07T04:45:24.477Z,2.799
2023-05-07T04:46:24.602Z,2.599
2023-05-07T04:47:24.680Z,3.700
2023-05-07T04:48:24.441Z,3
2023-05-07T04:49:24.386Z,3.299
2023-05-07T04:50:24.922Z,2.400
2023-05-07T04:51:24.174Z,2.700
2023-05-07T04:52:27.237Z,3.099
2023-05-07T04:53:24.586Z,2.299
2023-05-07T04:54:24.487Z,2.599
2023-05-07T04:55:24.786Z,2.700
2023-05-07T04:56:24.725Z,3.200
2023-05-07T04:57:24.239Z,2.400
2023-05-07T04:58:24.193Z,2.5
2023-05-07T04:59:24.096Z,3.299
2023-05-07T05:00:25.157Z,2.799
2023-05-07T05:01:43.330Z,2.299
2023-05-07T05:02:24.718Z,2.099
2023-05-07T05:03:23.790Z,2.5
2023-05-07T05:04:23.897Z,3.5
2023-05-07T05:05:24.037Z,2.400
2023-05-07T05:07:24.036Z,2.599
2023-05-07T05:08:24.275Z,2.400
2023-05-07T05:09:23.983Z,2.299
2023-05-07T05:10:24.852Z,2.099
2023-05-07T05:11:24.568Z,3.299
2023-05-07T05:12:24.342Z,1.700
2023-05-07T05:13:24.069Z,2.200
2023-05-07T05:14:24.233Z,2.599
2023-05-07T05:15:24.852Z,3.099
2023-05-07T05:16:24.255Z,2.5
2023-05-07T05:17:24.690Z,2.799
2023-05-07T05:18:23.565Z,2.200
2023-05-07T05:19:24.006Z,1.5
2023-05-07T05:20:24.429Z,2.400
2023-05-07T05:21:24.445Z,2.299
2023-05-07T05:22:24.315Z,2
2023-05-07T05:23:23.975Z,2.200
2023-05-07T05:24:24.048Z,2.700
2023-05-07T05:25:24.322Z,2.799
2023-05-07T05:26:24.407Z,14
2023-05-07T05:27:24.280Z,8.399
2023-05-07T05:28:24.115Z,7.800
2023-05-07T05:29:23.885Z,8
2023-05-07T05:30:24.472Z,6.099
2023-05-07T05:31:24.411Z,5.300
2023-05-07T05:32:24.509Z,4.900
2023-05-07T05:33:24.432Z,4.099
2023-05-07T05:35:24.307Z,4.900
2023-05-07T05:36:24.677Z,4.400
2023-05-07T05:37:24.447Z,4.900
2023-05-07T05:38:24.393Z,3.400
2023-05-07T05:39:24.358Z,4.099
2023-05-07T05:40:24.430Z,4
2023-05-07T05:41:24.223Z,3.5
2023-05-07T05:42:24.189Z,3.700
2023-05-07T05:43:24.300Z,4
2023-05-07T05:44:24.351Z,3.400
2023-05-07T05:45:24.408Z,3
2023-05-07T05:46:24.340Z,3.5
2023-05-07T05:47:24.721Z,4.199
2023-05-07T05:48:23.914Z,2.700
2023-05-07T05:49:24.300Z,2.5
2023-05-07T05:50:24.383Z,3.5
2023-05-07T05:51:24.612Z,3.400
2023-05-07T05:52:24.561Z,3.599
2023-05-07T05:53:24.588Z,2.599
2023-05-07T05:54:23.860Z,4.599
2023-05-07T05:55:24.324Z,2.5
2023-05-07T05:56:24.489Z,3
2023-05-07T05:57:25.983Z,2.799
2023-05-07T05:58:24.759Z,4.400
2023-05-07T05:59:24.764Z,2.700
2023-05-07T06:00:24.944Z,4.300
2023-05-07T06:01:24.184Z,3
2023-05-07T06:02:24.830Z,2.5
2023-05-07T06:03:24.377Z,3.5
2023-05-07T06:04:24.877Z,2.400
2023-05-07T06:05:24.466Z,2.200
2023-05-07T06:06:24.698Z,3.200
2023-05-07T06:07:23.951Z,2.599
2023-05-07T06:08:24.421Z,3.400
2023-05-07T06:09:24.680Z,2.700
2023-05-07T06:10:24.782Z,3.099
2023-05-07T06:11:24.151Z,2.700
2023-05-07T06:12:24.421Z,2.5
2023-05-07T06:13:24.420Z,3.700
2023-05-07T06:14:24.381Z,2.799
2023-05-07T06:15:24.755Z,3.099
2023-05-07T06:16:24.278Z,3.200
2023-05-07T06:17:24.395Z,4.900
2023-05-07T06:18:24.615Z,3.900
2023-05-07T06:19:24.157Z,3.099
2023-05-07T06:20:24.455Z,4.300
2023-05-07T06:21:24.278Z,3
2023-05-07T06:22:24.633Z,3.400
2023-05-07T06:23:24.785Z,3.099
2023-05-07T06:24:24.586Z,3
2023-05-07T06:25:24.785Z,3.700
2023-05-07T06:26:24.026Z,2.400
2023-05-07T06:27:24.378Z,3.200
2023-05-07T06:28:24.645Z,2.799
2023-05-07T06:29:24.338Z,2.900
2023-05-07T06:30:24.778Z,3.900
2023-05-07T06:31:24.258Z,4.5
2023-05-07T06:32:24.624Z,1.899
2023-05-07T06:34:24.120Z,2.799
2023-05-07T06:35:24.197Z,2.5
2023-05-07T06:37:24.263Z,2.599
2023-05-07T06:38:24.468Z,3.700
2023-05-07T06:39:24.721Z,2.299
2023-05-07T06:40:24.640Z,2.599
2023-05-07T06:41:23.819Z,3.599
2023-05-07T06:42:23.857Z,3.299
2023-05-07T06:43:24.005Z,5.199
2023-05-07T06:44:23.950Z,3.299
2023-05-07T06:45:24.242Z,3.400
2023-05-07T06:46:24.180Z,3.700
2023-05-07T06:48:24.656Z,3.400
2023-05-07T06:50:24.978Z,3.299
2023-05-07T06:51:24.187Z,3.400
2023-05-07T06:52:24.409Z,3.5
2023-05-07T06:53:24.314Z,3.900
2023-05-07T06:54:24.453Z,3.299
2023-05-07T06:56:24.041Z,3.700
2023-05-07T06:57:24.563Z,2.700
2023-05-07T06:58:24.468Z,3.299
2023-05-07T06:59:24.962Z,3.200
2023-05-07T07:00:24.896Z,2.799
2023-05-07T07:01:24.320Z,3.099
2023-05-07T07:02:29.786Z,5.599
2023-05-07T07:03:23.927Z,3.400
2023-05-07T07:04:24.839Z,3.099
2023-05-07T07:05:24.285Z,2.400
2023-05-07T07:06:24.420Z,2.900
2023-05-07T07:07:24.713Z,3
2023-05-07T07:08:24.727Z,2.799
2023-05-07T07:09:24.288Z,2.5
2023-05-07T07:10:32.974Z,2.700
2023-05-07T07:11:24.286Z,2.299
2023-05-07T07:12:24.710Z,3.5
2023-05-07T07:13:24.043Z,3.700
2023-05-07T07:14:24.174Z,2.599
2023-05-07T07:16:38.441Z,3.200
2023-05-07T07:17:24.701Z,2.599
2023-05-07T07:18:24.304Z,2.400
2023-05-07T07:19:24.345Z,3.799
2023-05-07T07:20:38.402Z,2.700
2023-05-07T07:21:24.205Z,2.599
2023-05-07T07:22:24.554Z,3.5
2023-05-07T07:23:24.527Z,4
2023-05-07T07:24:24.583Z,3.099
2023-05-07T07:25:25.064Z,2.900
2023-05-07T07:26:24.192Z,3.299
2023-05-07T07:27:24.750Z,2.700
2023-05-07T07:28:24.052Z,4.099
2023-05-07T07:29:24.212Z,3.099
2023-05-07T07:30:24.804Z,3.799
2023-05-07T07:31:24.269Z,3
2023-05-07T07:32:25.127Z,2.599
2023-05-07T07:33:23.953Z,3.099
2023-05-07T07:34:24.460Z,2.799
2023-05-07T07:35:25.754Z,3
2023-05-07T07:36:29.476Z,2.599
2023-05-07T07:37:23.874Z,3.200
2023-05-07T07:38:24.013Z,2.900
2023-05-07T07:39:24.464Z,2.599
2023-05-07T07:40:24.637Z,2.5
2023-05-07T07:41:24.484Z,2.200
2023-05-07T07:42:24.349Z,2.5
2023-05-07T07:43:24.293Z,2.700
2023-05-07T07:44:24.040Z,1.899
2023-05-07T07:45:24.364Z,3.299
2023-05-07T07:46:24.311Z,4
2023-05-07T07:47:24.695Z,2.900
2023-05-07T07:48:24.186Z,3
2023-05-07T07:49:24.193Z,2.599
2023-05-07T07:50:39.983Z,3.400
2023-05-07T07:51:24.335Z,3
2023-05-07T07:52:24.679Z,3.299
2023-05-07T07:53:24.064Z,3.700
2023-05-07T07:54:24.307Z,3.200
2023-05-07T07:55:24.892Z,3.799
2023-05-07T07:56:24.243Z,3
2023-05-07T07:57:24.689Z,3.700
2023-05-07T07:58:24.198Z,3.200
2023-05-07T07:59:24.479Z,4
2023-05-07T08:00:25.811Z,2.900
2023-05-07T08:01:24.229Z,3.099
2023-05-07T08:02:24.990Z,3.5
2023-05-07T08:03:24.618Z,3.200
2023-05-07T08:04:24.462Z,3
2023-05-07T08:05:24.400Z,2.799
2023-05-07T08:06:24.548Z,3.200
2023-05-07T08:07:24.159Z,3.400
2023-05-07T08:08:24.359Z,3.099
2023-05-07T08:09:24.376Z,2.700
2023-05-07T08:10:24.952Z,3.299
2023-05-07T08:11:24.629Z,2.900
2023-05-07T08:12:24.336Z,3
2023-05-07T08:13:24.641Z,3.799
2023-05-07T08:14:23.709Z,3.200
2023-05-07T08:16:24.646Z,3.700
2023-05-07T08:17:24.112Z,2.900
2023-05-07T08:18:24.322Z,2.299
2023-05-07T08:19:24.488Z,3.299
2023-05-07T08:20:25.012Z,3.099
2023-05-07T08:21:24.290Z,3
2023-05-07T08:22:24.291Z,2.900
2023-05-07T08:23:24.512Z,2.299
2023-05-07T08:24:24.727Z,2.200
2023-05-07T08:25:24.981Z,2.700
2023-05-07T08:26:23.934Z,3.099
2023-05-07T08:27:24.114Z,3.200
2023-05-07T08:28:24.070Z,2.799
2023-05-07T08:29:24.289Z,2.700
2023-05-07T08:30:24.763Z,3.5
2023-05-07T08:31:23.867Z,2.799
2023-05-07T08:32:24.263Z,3
2023-05-07T08:33:24.830Z,3.299
2023-05-07T08:34:24.341Z,2.299
2023-05-07T08:35:24.519Z,3.200
2023-05-07T08:36:24.516Z,2.599
2023-05-07T08:37:24.419Z,3.200
2023-05-07T08:38:24.808Z,2.400
2023-05-07T08:39:24.676Z,2.799
2023-05-07T08:40:24.469Z,1.899
2023-05-07T08:41:24.548Z,3
2023-05-07T08:42:25.147Z,2.299
2023-05-07T08:43:24.006Z,3.099
2023-05-07T08:44:24.551Z,3.299
2023-05-07T08:45:24.902Z,3.099
2023-05-07T08:46:24.152Z,2.599
2023-05-07T08:47:24.788Z,2.5
2023-05-07T08:48:24.171Z,2.400
2023-05-07T08:49:24.456Z,3.299
2023-05-07T08:50:24.922Z,3.700
2023-05-07T08:51:24.194Z,2.599
2023-05-07T08:52:24.339Z,2.700
2023-05-07T08:53:24.584Z,3.400
2023-05-07T08:54:24.271Z,3.299
2023-05-07T08:55:25.049Z,3.5
2023-05-07T08:56:24.647Z,3.099
2023-05-07T08:57:24.189Z,2.700
2023-05-07T08:58:24.648Z,2.900
2023-05-07T08:59:24.412Z,2.799
2023-05-07T09:00:24.974Z,3.099
2023-05-07T09:02:24.862Z,3.5
2023-05-07T09:03:24.189Z,3
2023-05-07T09:04:24.670Z,3.700
2023-05-07T09:05:24.293Z,3
2023-05-07T09:06:24.650Z,3.900
2023-05-07T09:07:24.010Z,2.900
2023-05-07T09:08:24.400Z,4
2023-05-07T09:09:24.601Z,3.299
2023-05-07T09:10:24.283Z,3.099
2023-05-07T09:11:24.369Z,3.5
2023-05-07T09:12:24.731Z,3.799
2023-05-07T09:13:24.609Z,3.400
2023-05-07T09:14:24.638Z,4.099
2023-05-07T09:15:24.342Z,2.700
2023-05-07T09:16:24.410Z,2.799
2023-05-07T09:17:24.837Z,2.900
2023-05-07T09:18:24.284Z,2.599
2023-05-07T09:19:29.951Z,2.799
2023-05-07T09:20:24.795Z,3.299
2023-05-07T09:21:29.220Z,3.799
2023-05-07T09:22:24.756Z,3.900
2023-05-07T09:25:29.731Z,4.599
2023-05-07T09:26:24.437Z,3.700
2023-05-07T09:27:24.962Z,3.599
2023-05-07T09:28:24.395Z,3.799
2023-05-07T09:29:24.670Z,3.200
2023-05-07T09:30:24.694Z,4.199
2023-05-07T09:31:24.179Z,3.799
2023-05-07T09:32:24.619Z,3.299
2023-05-07T09:33:24.117Z,2.799
2023-05-07T09:34:24.458Z,3.299
2023-05-07T09:35:32.272Z,3.099
2023-05-07T09:37:24.677Z,2.799
2023-05-07T09:38:24.039Z,3.700
2023-05-07T09:39:24.245Z,2.799
2023-05-07T09:40:24.688Z,3.5
2023-05-07T09:41:24.005Z,6.300
2023-05-07T09:42:24.445Z,5.199
2023-05-07T09:43:24.582Z,4.900
2023-05-07T09:44:24.209Z,5.199
2023-05-07T09:45:25.101Z,5
2023-05-07T09:46:24.272Z,3.5
2023-05-07T09:48:24.309Z,4
2023-05-07T09:49:24.498Z,3
2023-05-07T09:50:24.776Z,3.400
2023-05-07T09:51:24.348Z,3.5
2023-05-07T09:53:23.818Z,3.200
2023-05-07T09:54:24.220Z,3.900
2023-05-07T09:55:24.986Z,2.799
2023-05-07T09:56:24.379Z,3.099
2023-05-07T09:57:24.123Z,4.099
2023-05-07T09:58:24.955Z,4.400
2023-05-07T09:59:24.316Z,3.299
2023-05-07T10:00:25.298Z,3.200
2023-05-07T10:01:24.771Z,6.699
2023-05-07T10:02:24.232Z,3.5
2023-05-07T10:03:24.213Z,4.099
2023-05-07T10:04:24.851Z,3.799
2023-05-07T10:05:24.394Z,3.400
2023-05-07T10:06:24.032Z,5
2023-05-07T10:07:24.319Z,3.599
2023-05-07T10:08:24.500Z,2.799
2023-05-07T10:09:24.142Z,3.400
2023-05-07T10:10:24.711Z,3.200
2023-05-07T10:11:24.248Z,3.5
2023-05-07T10:12:24.500Z,3.400
2023-05-07T10:13:24.388Z,3
2023-05-07T10:14:24.484Z,3.5
2023-05-07T10:15:25.066Z,3.299
2023-05-07T10:16:24.366Z,3.200
2023-05-07T10:17:24.961Z,2.799
2023-05-07T10:18:24.933Z,3.200
2023-05-07T10:19:25.053Z,3
2023-05-07T10:20:24.814Z,3.400
2023-05-07T10:21:24.183Z,2.299
2023-05-07T10:22:24.221Z,3.400
2023-05-07T10:23:24.303Z,3.5
2023-05-07T10:24:24.494Z,3.099
2023-05-07T10:25:24.592Z,3.299
2023-05-07T10:26:23.983Z,3.5
2023-05-07T10:27:24.526Z,2.400
2023-05-07T10:28:24.098Z,3
2023-05-07T10:29:24.168Z,2.700
2023-05-07T10:30:27.402Z,3.599
2023-05-07T10:31:24.222Z,2.799
2023-05-07T10:32:24.740Z,4.199
2023-05-07T10:33:24.476Z,4.099
2023-05-07T10:34:25.084Z,5.599
2023-05-07T10:35:24.825Z,3
2023-05-07T10:36:24.683Z,3.599
2023-05-07T10:37:24.422Z,3.200
2023-05-07T10:38:24.922Z,3.299
2023-05-07T10:40:24.194Z,2.700
2023-05-07T10:41:24.174Z,2.200
2023-05-07T10:42:24.485Z,2.900
2023-05-07T10:43:24.770Z,2.599
2023-05-07T10:44:24.174Z,3.099
2023-05-07T10:45:25.361Z,3.5
2023-05-07T10:46:24.903Z,2.799
2023-05-07T10:47:25.030Z,3.400
2023-05-07T10:48:30.333Z,3.200
2023-05-07T10:49:24.798Z,3.5
2023-05-07T10:50:24.794Z,4
2023-05-07T10:51:24.189Z,3.099
2023-05-07T10:52:24.585Z,3.700
2023-05-07T10:54:24.871Z,4.099
2023-05-07T10:55:24.651Z,2.5
2023-05-07T10:56:24.106Z,3.400
2023-05-07T10:57:24.893Z,3.599
2023-05-07T10:58:31.470Z,2.200
2023-05-07T10:59:24.894Z,2.400
2023-05-07T11:00:37.904Z,2.5
2023-05-07T11:01:24.428Z,2.700
2023-05-07T11:02:24.434Z,3
2023-05-07T11:03:24.455Z,3.200
2023-05-07T11:04:23.875Z,2.900
2023-05-07T11:06:29.283Z,2.700
2023-05-07T11:07:24.853Z,3.700
2023-05-07T11:08:24.541Z,3.200
2023-05-07T11:09:24.151Z,3.700
2023-05-07T11:10:24.347Z,3.599
2023-05-07T11:11:24.400Z,3.900
2023-05-07T11:12:24.457Z,4.900
2023-05-07T11:13:24.466Z,3.5
2023-05-07T11:14:24.902Z,5.400
2023-05-07T11:15:25.063Z,5.199
2023-05-07T11:16:24.494Z,9.300
2023-05-07T11:17:24.406Z,6.400
2023-05-07T11:18:24.585Z,7.199
2023-05-07T11:20:24.875Z,9.699
2023-05-07T11:21:24.359Z,7.099
2023-05-07T11:22:24.732Z,9.100
2023-05-07T11:23:24.104Z,10.60
2023-05-07T11:24:24.343Z,9.399
2023-05-07T11:25:24.529Z,10.10
2023-05-07T11:26:24.236Z,9.5
2023-05-07T11:27:24.750Z,7.699
2023-05-07T11:28:24.311Z,11
2023-05-07T11:29:24.609Z,12.10
2023-05-07T11:30:24.638Z,11.69
2023-05-07T11:31:24.254Z,8.100
2023-05-07T11:32:24.708Z,6.300
2023-05-07T11:34:24.760Z,5.400
2023-05-07T11:35:24.761Z,5.5
2023-05-07T11:36:24.485Z,5.699
2023-05-07T11:37:24.365Z,4.300
2023-05-07T11:38:25.013Z,5.5
2023-05-07T11:40:24.816Z,6.800
2023-05-07T11:41:24.357Z,5.5
2023-05-07T11:42:24.871Z,6.599
2023-05-07T11:43:24.880Z,7.699
2023-05-07T11:44:24.896Z,7.099
2023-05-07T11:45:24.991Z,4.199
2023-05-07T11:46:24.382Z,5.300
2023-05-07T11:47:25.047Z,6
2023-05-07T11:48:24.322Z,5
2023-05-07T11:49:24.915Z,5.900
2023-05-07T11:50:24.179Z,5.199
2023-05-07T11:51:24.529Z,5.300
2023-05-07T11:52:24.088Z,4.400
2023-05-07T11:53:24.906Z,5
2023-05-07T11:54:32.595Z,5.599
2023-05-07T11:55:25.192Z,4.400
2023-05-07T11:56:24.493Z,5.300
2023-05-07T11:57:24.890Z,4.400
2023-05-07T11:58:24.637Z,4.300
2023-05-07T11:59:24.378Z,4.699
2023-05-07T12:00:33.494Z,4.400
2023-05-07T12:01:24.973Z,5.400
2023-05-07T12:02:38.603Z,4.900
2023-05-07T12:03:24.572Z,4.400
2023-05-07T12:04:24.697Z,4.699
2023-05-07T12:05:24.992Z,4.5
2023-05-07T12:06:24.494Z,4.099
2023-05-07T12:07:24.907Z,4.800
2023-05-07T12:08:24.349Z,11.60
2023-05-07T12:09:24.868Z,5.400
2023-05-07T12:10:38.602Z,5.199
2023-05-07T12:11:24.885Z,4.900
2023-05-07T12:12:24.638Z,4.300
2023-05-07T12:13:24.166Z,4.400
2023-05-07T12:14:25.029Z,5.099
2023-05-07T12:15:25.101Z,4.699
2023-05-07T12:16:24.732Z,6.199
2023-05-07T12:17:24.252Z,5
2023-05-07T12:18:24.638Z,5.800
2023-05-07T12:19:24.917Z,5.599
2023-05-07T12:20:24.663Z,5.400
2023-05-07T12:21:24.304Z,6.5
2023-05-07T12:22:24.700Z,7
2023-05-07T12:23:24.137Z,5.900
2023-05-07T12:24:24.412Z,5.800
2023-05-07T12:25:24.590Z,5.699
2023-05-07T12:26:24.205Z,5.199
2023-05-07T12:27:24.676Z,3.900
2023-05-07T12:28:24.326Z,4.699
2023-05-07T12:29:24.561Z,3.599
2023-05-07T12:30:46.347Z,5.800
2023-05-07T12:31:24.181Z,4.699
2023-05-07T12:32:24.829Z,4.900
2023-05-07T12:33:24.338Z,3.799
2023-05-07T12:34:24.863Z,3.200
2023-05-07T12:35:24.388Z,5.400
2023-05-07T12:36:24.546Z,3.900
2023-05-07T12:37:24.215Z,4.599
2023-05-07T12:38:24.623Z,4.699
2023-05-07T12:39:24.578Z,4
2023-05-07T12:40:24.991Z,4.599
2023-05-07T12:41:24.198Z,4
2023-05-07T12:42:24.852Z,4.199
2023-05-07T12:43:24.104Z,5
2023-05-07T12:44:24.822Z,4.300
2023-05-07T12:45:24.735Z,4.199
2023-05-07T12:46:24.427Z,4.300
2023-05-07T12:47:25.032Z,4.199
2023-05-07T12:48:24.534Z,3.299
2023-05-07T12:49:25.414Z,4.5
2023-05-07T12:50:24.681Z,5.300
2023-05-07T12:51:24.532Z,4.199
2023-05-07T12:53:24.233Z,3.900
2023-05-07T12:54:24.557Z,4.900
2023-05-07T12:55:25.062Z,4.199
2023-05-07T12:57:28.820Z,3.700
2023-05-07T12:58:24.398Z,4.599
2023-05-07T12:59:24.895Z,4.099
2023-05-07T13:00:25.162Z,4.5
2023-05-07T13:01:24.577Z,3.599
2023-05-07T13:02:24.592Z,3.400
2023-05-07T13:03:24.385Z,3.799
2023-05-07T13:04:24.451Z,4.5
2023-05-07T13:05:25.144Z,4.699
2023-05-07T13:06:25.030Z,4.400
2023-05-07T13:07:24.859Z,4.199
2023-05-07T13:08:25.158Z,4.099
2023-05-07T13:09:24.832Z,4.5
2023-05-07T13:10:24.881Z,4.900
2023-05-07T13:11:24.457Z,5.199
2023-05-07T13:12:24.624Z,4.900
2023-05-07T13:13:24.168Z,4.599
2023-05-07T13:14:24.548Z,4
2023-05-07T13:15:24.771Z,4.5
2023-05-07T13:16:24.578Z,3.900
2023-05-07T13:17:24.444Z,4.099
2023-05-07T13:18:24.373Z,3.599
2023-05-07T13:19:24.003Z,4
2023-05-07T13:20:24.656Z,5.599
2023-05-07T13:21:24.168Z,3.700
2023-05-07T13:22:24.617Z,4.699
2023-05-07T13:23:24.095Z,4
2023-05-07T13:24:24.723Z,4.599
2023-05-07T13:25:24.976Z,5
2023-05-07T13:26:26.882Z,3.5
2023-05-07T13:28:24.637Z,4.400
2023-05-07T13:29:24.690Z,3.099
2023-05-07T13:30:25.366Z,3.799
2023-05-07T13:32:24.683Z,4.099
2023-05-07T13:34:24.714Z,6
2023-05-07T13:35:24.495Z,5.5
2023-05-07T13:36:25.295Z,4
2023-05-07T13:37:24.113Z,5.5
2023-05-07T13:38:25.131Z,4.400
2023-05-07T13:39:24.683Z,5.699
2023-05-07T13:40:24.411Z,4.800
2023-05-07T13:41:24.869Z,5.300
2023-05-07T13:42:24.262Z,3.799
2023-05-07T13:43:24.085Z,4.599
2023-05-07T13:44:24.431Z,5.900
2023-05-07T13:45:25.069Z,4.800
2023-05-07T13:46:24.508Z,5.599
2023-05-07T13:47:25.156Z,6
2023-05-07T13:48:24.359Z,6.5
2023-05-07T13:49:24.803Z,5.5
2023-05-07T13:50:24.402Z,5.099
2023-05-07T13:51:25.012Z,4.800
2023-05-07T13:52:24.556Z,5.800
2023-05-07T13:53:25.161Z,5
2023-05-07T13:54:25.056Z,3.799
2023-05-07T13:55:25.032Z,5.5
2023-05-07T13:56:24.459Z,5.599
2023-05-07T13:57:24.924Z,5.099
2023-05-07T13:58:24.422Z,6.199